CheckWX is a tool to help pilots better visualize weather data.  It is not intended as a substitute for an official pre-flight weather briefing.

20:17:14 UTC

KQAZ METAR
Agadez
Agadez, Niger
Current

21 mins ago

KQAZ 231956Z AUTO 00000KT 4400 HZ CLR 34/M06 A2981 RMK AO2 SLPNO WND DATA ESTMD T03441063
Observed
Apr-23 @ 19:56 UTC
Visibility
4,394 meters
Flight Rules
IFR
Conditions
Haze
Cloud Levels
  • Clear skies
Temperature
34°C / 93°F
Dewpoint
-6°C / 21°F
Humidity
7%
Altimeter
29.81" Hg
Pressure
1009.52 hPa
Previous

1 hour ago

KQAZ 231856Z AUTO 00000KT 3600 HZ CLR 35/M05 A2978 RMK AO2 SLP094 WND DATA ESTMD T03531055
Observed
Apr-23 @ 18:56 UTC
Visibility
3,605 meters
Flight Rules
IFR
Conditions
Haze
Cloud Levels
  • Clear skies
Temperature
35°C / 95°F
Dewpoint
-6°C / 21°F
Humidity
7%
Altimeter
29.78" Hg
Pressure
1008.42 hPa
Previous

2 hours ago

KQAZ 231756Z AUTO 00000KT 4400 HZ CLR 37/M05 A2977 RMK AO2 VIS 4000V5000 SLP090 WND DATA ESTMD T03691051 10392 20369 53002
Observed
Apr-23 @ 17:56 UTC
Visibility
4,394 meters
Flight Rules
IFR
Conditions
Haze
Cloud Levels
  • Clear skies
Temperature
37°C / 99°F
Dewpoint
-5°C / 23°F
Humidity
7%
Altimeter
29.77" Hg
Pressure
1008.12 hPa